Time;durP1;ratioP1;P1;durP2;ratioP2;P2;SDS_P1;SDS_P2;PMS_P1;PMS_P2;Temp;Humidity;BMP_temperature;BMP_pressure;BME280_temperature;BME280_humidity;BME280_pressure;Samples;Min_cycle;Max_cycle;Signal;HPM_P1;HPM_P2
2023/07/09 00:00:49;;;;;;;8.18;5.60;;;;;23.10;98904.00;;;;4994366;28;20047;-65
2023/07/09 00:03:18;;;;;;;10.18;5.65;;;;;23.20;98900.00;;;;4996075;28;20046;-65
2023/07/09 00:05:47;;;;;;;9.10;6.30;;;;;23.00;98910.00;;;;4996029;28;20046;-65
2023/07/09 00:08:29;;;;;;;10.25;5.85;;;;;22.80;98910.00;;;;4998186;28;20042;-65
2023/07/09 00:10:57;;;;;;;14.02;5.28;;;;;22.80;98909.00;;;;4995369;28;20454;-65
2023/07/09 00:13:26;;;;;;;8.15;5.15;;;;;22.80;98911.00;;;;5012911;28;20061;-64
2023/07/09 00:15:59;;;;;;;10.32;5.13;;;;;22.70;98915.00;;;;4995399;28;20046;-64
2023/07/09 00:18:26;;;;;;;8.20;6.13;;;;;22.60;98910.00;;;;5012496;28;20054;-65
2023/07/09 00:20:54;;;;;;;9.02;5.80;;;;;22.60;98910.00;;;;4995961;28;20134;-65
2023/07/09 00:23:22;;;;;;;7.30;5.45;;;;;22.60;98909.00;;;;4995847;28;20092;-64
2023/07/09 00:25:48;;;;;;;8.75;6.10;;;;;22.40;98915.00;;;;5010417;28;20503;-65
2023/07/09 00:28:19;;;;;;;7.93;5.55;;;;;22.30;98910.00;;;;4995533;28;20073;-64
2023/07/09 00:30:48;;;;;;;10.82;6.47;;;;;22.20;98911.00;;;;4993734;28;20047;-65
2023/07/09 00:33:18;;;;;;;8.30;6.07;;;;;22.20;98914.00;;;;5010579;28;20050;-64
2023/07/09 00:35:48;;;;;;;9.90;5.75;;;;;22.10;98919.00;;;;5010156;28;20074;-64
2023/07/09 00:38:21;;;;;;;8.73;6.15;;;;;22.20;98919.00;;;;5010466;28;20054;-64
2023/07/09 00:41:02;;;;;;;7.68;6.10;;;;;22.30;98920.00;;;;5009847;28;20050;-64
2023/07/09 00:43:35;;;;;;;9.57;6.22;;;;;22.20;98924.00;;;;4994068;28;20124;-64
2023/07/09 00:46:20;;;;;;;9.90;6.63;;;;;22.20;98918.00;;;;4993831;28;20519;-65
2023/07/09 00:48:51;;;;;;;8.82;5.90;;;;;22.00;98925.00;;;;5010268;28;20047;-65
2023/07/09 00:51:20;;;;;;;9.45;6.40;;;;;21.90;98919.00;;;;4994749;28;20038;-65
2023/07/09 00:53:51;;;;;;;7.05;5.63;;;;;21.80;98925.00;;;;4993531;28;20484;-65
2023/07/09 00:56:29;;;;;;;8.63;6.10;;;;;21.90;98914.00;;;;4994982;28;20050;-64
2023/07/09 00:59:01;;;;;;;7.40;5.40;;;;;21.90;98916.00;;;;4995079;28;20050;-64
2023/07/09 01:01:29;;;;;;;;;;;;;22.10;98924.00;;;;4977406;28;20053;-64
2023/07/09 01:03:59;;;;;;;14.05;6.80;;;;;22.10;98924.00;;;;4994853;28;19929;-64
2023/07/09 01:06:48;;;;;;;12.00;6.20;;;;;21.90;98920.00;;;;4993597;28;20050;-64
2023/07/09 01:09:16;;;;;;;8.93;5.88;;;;;21.90;98921.00;;;;5009309;28;20085;-64
2023/07/09 01:11:43;;;;;;;9.40;6.47;;;;;22.00;98925.00;;;;5009962;28;20042;-64
2023/07/09 01:14:13;;;;;;;9.48;6.03;;;;;21.90;98916.00;;;;4993407;28;20046;-64
2023/07/09 01:16:48;;;;;;;10.75;6.32;;;;;21.80;98928.00;;;;4994825;28;20042;-64
2023/07/09 01:19:16;;;;;;;9.00;6.20;;;;;21.70;98914.00;;;;4994091;28;20046;-64
2023/07/09 01:21:43;;;;;;;8.20;6.28;;;;;21.70;98919.00;;;;5009653;28;20043;-64
2023/07/09 01:24:14;;;;;;;9.07;5.85;;;;;21.60;98926.00;;;;4994252;28;20517;-64
2023/07/09 01:26:41;;;;;;;8.05;6.25;;;;;21.50;98917.00;;;;5009447;28;20085;-64
2023/07/09 01:29:07;;;;;;;8.35;5.75;;;;;21.40;98918.00;;;;4993890;28;20106;-64
2023/07/09 01:31:35;;;;;;;9.85;6.18;;;;;21.40;98920.00;;;;5009426;28;20146;-64
2023/07/09 01:34:02;;;;;;;6.78;4.93;;;;;21.40;98922.00;;;;5009182;28;20054;-64
2023/07/09 01:36:29;;;;;;;8.05;5.70;;;;;21.50;98912.00;;;;5009471;28;20129;-64
2023/07/09 01:38:56;;;;;;;9.95;5.90;;;;;21.60;98926.00;;;;4993110;28;20035;-64
2023/07/09 01:41:22;;;;;;;6.65;5.40;;;;;21.50;98922.00;;;;4992395;28;20631;-64
2023/07/09 01:43:51;;;;;;;6.88;5.45;;;;;21.50;98923.00;;;;5008961;28;20046;-64
2023/07/09 01:46:17;;;;;;;7.15;5.18;;;;;21.50;98920.00;;;;4994114;28;20129;-64
2023/07/09 01:48:44;;;;;;;8.40;5.63;;;;;21.50;98922.00;;;;5008873;28;20394;-64
2023/07/09 01:51:16;;;;;;;8.18;5.63;;;;;21.40;98914.00;;;;4992299;28;20074;-64
2023/07/09 01:53:44;;;;;;;9.55;5.47;;;;;21.40;98910.00;;;;4993783;28;20129;-64
2023/07/09 01:56:10;;;;;;;8.65;5.68;;;;;21.40;98908.00;;;;4993770;28;20043;-64
2023/07/09 01:58:41;;;;;;;7.32;5.57;;;;;21.40;98910.00;;;;4992502;28;20058;-64
2023/07/09 02:01:10;;;;;;;7.53;5.60;;;;;21.30;98917.00;;;;4993267;28;20504;-64
2023/07/09 02:03:37;;;;;;;8.20;5.70;;;;;21.40;98902.00;;;;4993697;28;20527;-64
2023/07/09 02:06:09;;;;;;;9.00;6.25;;;;;21.40;98906.00;;;;4992217;28;20396;-64
2023/07/09 02:08:37;;;;;;;8.82;6.45;;;;;21.50;98906.00;;;;4993456;28;20052;-64
2023/07/09 02:11:04;;;;;;;9.27;5.80;;;;;21.70;98907.00;;;;4992984;28;20092;-64
2023/07/09 02:13:30;;;;;;;9.75;5.80;;;;;21.70;98912.00;;;;4992209;28;20144;-64
2023/07/09 02:15:57;;;;;;;9.10;5.80;;;;;21.90;98916.00;;;;5008553;28;20566;-64
2023/07/09 02:18:24;;;;;;;7.72;5.32;;;;;21.80;98909.00;;;;5008394;28;20052;-63
2023/07/09 02:20:51;;;;;;;9.25;5.32;;;;;21.70;98904.00;;;;4991497;28;20050;-63
2023/07/09 02:23:18;;;;;;;7.38;5.63;;;;;21.70;98906.00;;;;5008055;28;20499;-65
2023/07/09 02:25:44;;;;;;;8.05;6.47;;;;;21.70;98900.00;;;;4991872;28;20054;-63
2023/07/09 02:28:11;;;;;;;8.80;6.30;;;;;21.80;98901.00;;;;5008363;28;20073;-64
2023/07/09 02:30:37;;;;;;;7.78;5.32;;;;;21.90;98904.00;;;;5007899;28;20054;-63
2023/07/09 02:33:04;;;;;;;8.13;5.82;;;;;21.90;98909.00;;;;4992021;28;20053;-63
2023/07/09 02:35:31;;;;;;;6.97;5.63;;;;;21.80;98913.00;;;;5008009;28;20514;-63
2023/07/09 02:37:57;;;;;;;9.10;5.70;;;;;21.60;98915.00;;;;5008181;28;20149;-63
2023/07/09 02:40:24;;;;;;;7.78;5.72;;;;;21.50;98920.00;;;;4991143;28;20507;-63
2023/07/09 02:42:50;;;;;;;8.05;5.97;;;;;21.30;98919.00;;;;5008056;28;20047;-63
2023/07/09 02:45:17;;;;;;;8.30;6.57;;;;;21.20;98926.00;;;;5008004;28;20053;-63
2023/07/09 02:47:46;;;;;;;10.35;6.15;;;;;21.10;98920.00;;;;5008105;28;20042;-63
2023/07/09 02:50:13;;;;;;;8.25;6.03;;;;;21.20;98925.00;;;;4991222;28;20081;-63
2023/07/09 02:52:42;;;;;;;7.80;5.97;;;;;21.40;98923.00;;;;4975867;28;20043;-63
2023/07/09 02:55:08;;;;;;;7.85;5.47;;;;;21.40;98922.00;;;;4992938;28;20050;-63
2023/07/09 02:57:35;;;;;;;11.05;6.53;;;;;21.20;98923.00;;;;5008037;28;20396;-64
2023/07/09 03:00:05;;;;;;;10.43;5.97;;;;;21.30;98930.00;;;;5007279;28;20105;-64
2023/07/09 03:02:32;;;;;;;9.25;5.82;;;;;21.40;98933.00;;;;4991438;28;20065;-64
2023/07/09 03:05:00;;;;;;;8.30;5.78;;;;;21.40;98922.00;;;;4991789;28;20049;-65
2023/07/09 03:07:27;;;;;;;9.30;5.13;;;;;21.30;98931.00;;;;4993356;28;20149;-64
2023/07/09 03:09:53;;;;;;;7.57;5.60;;;;;21.30;98934.00;;;;4991163;28;20042;-64
2023/07/09 03:12:20;;;;;;;8.82;5.57;;;;;21.10;98936.00;;;;4992639;28;20077;-64
2023/07/09 03:14:50;;;;;;;7.88;5.55;;;;;21.10;98939.00;;;;4991236;28;20042;-63
2023/07/09 03:17:17;;;;;;;11.23;5.70;;;;;21.10;98945.00;;;;5007663;28;20152;-65
2023/07/09 03:19:43;;;;;;;9.20;6.10;;;;;21.10;98937.00;;;;5006977;28;20046;-64
2023/07/09 03:22:10;;;;;;;8.30;5.78;;;;;21.00;98937.00;;;;5007422;28;20133;-64
2023/07/09 03:24:36;;;;;;;10.02;5.85;;;;;20.90;98943.00;;;;5006846;28;20050;-63
2023/07/09 03:27:03;;;;;;;8.63;6.20;;;;;20.90;98936.00;;;;4991181;28;20145;-63
2023/07/09 03:29:30;;;;;;;9.35;6.18;;;;;20.80;98934.00;;;;4991932;28;20105;-64
2023/07/09 03:31:56;;;;;;;11.20;6.80;;;;;20.80;98935.00;;;;5007696;28;20133;-64
2023/07/09 03:34:23;;;;;;;7.80;5.93;;;;;20.60;98946.00;;;;4991166;28;20057;-64
2023/07/09 03:36:50;;;;;;;8.00;5.78;;;;;20.60;98950.00;;;;4992491;28;20100;-64
2023/07/09 03:39:16;;;;;;;8.73;5.97;;;;;20.80;98952.00;;;;4974130;28;20054;-63
2023/07/09 03:41:43;;;;;;;10.48;6.03;;;;;21.00;98965.00;;;;4992385;28;20054;-62
2023/07/09 03:44:09;;;;;;;13.20;5.95;;;;;21.10;98960.00;;;;4992420;28;20129;-65
2023/07/09 03:46:36;;;;;;;12.82;6.60;;;;;21.10;98961.00;;;;4992534;28;20430;-65
2023/07/09 03:49:02;;;;;;;10.20;6.72;;;;;21.20;98967.00;;;;4991843;28;20050;-66
2023/07/09 03:51:29;;;;;;;9.77;6.72;;;;;21.30;98966.00;;;;5007662;28;20566;-62
2023/07/09 03:53:56;;;;;;;10.65;6.45;;;;;21.20;98969.00;;;;4991211;28;20056;-65
2023/07/09 03:56:22;;;;;;;8.27;5.90;;;;;21.20;98969.00;;;;4992257;28;20149;-65
2023/07/09 03:58:49;;;;;;;8.02;6.00;;;;;21.30;98967.00;;;;4992713;28;20042;-64
2023/07/09 04:01:16;;;;;;;8.63;5.78;;;;;21.30;98970.00;;;;5007307;28;20050;-63
2023/07/09 04:03:43;;;;;;;8.20;5.53;;;;;21.30;98979.00;;;;4992664;28;20057;-63
2023/07/09 04:06:10;;;;;;;8.15;7.07;;;;;21.30;98969.00;;;;4993041;28;20050;-64
2023/07/09 04:08:36;;;;;;;9.98;6.50;;;;;21.40;98969.00;;;;4992360;28;20064;-64
2023/07/09 04:11:03;;;;;;;7.60;6.10;;;;;21.40;98973.00;;;;4990108;28;20069;-65
2023/07/09 04:13:30;;;;;;;10.10;6.93;;;;;21.40;98973.00;;;;4992110;28;20046;-64
2023/07/09 04:15:57;;;;;;;9.60;6.93;;;;;21.50;98978.00;;;;4991937;28;20046;-64
2023/07/09 04:18:24;;;;;;;9.70;6.20;;;;;21.50;98982.00;;;;4992020;28;20046;-64
2023/07/09 04:20:51;;;;;;;7.47;5.53;;;;;21.60;98975.00;;;;5006429;28;20089;-64
2023/07/09 04:23:19;;;;;;;8.75;6.50;;;;;21.40;98974.00;;;;4991932;28;20130;-64
2023/07/09 04:25:45;;;;;;;6.00;5.28;;;;;21.30;98978.00;;;;4974525;28;20057;-65
2023/07/09 04:28:12;;;;;;;10.70;5.88;;;;;21.10;98978.00;;;;4992220;28;20046;-64
2023/07/09 04:30:38;;;;;;;7.90;5.88;;;;;21.20;98977.00;;;;4991410;28;20478;-63
2023/07/09 04:33:05;;;;;;;8.77;6.05;;;;;21.20;98977.00;;;;5006818;28;20041;-64
2023/07/09 04:35:32;;;;;;;8.93;6.18;;;;;21.30;98973.00;;;;4992705;28;20046;-64
2023/07/09 04:37:58;;;;;;;9.25;6.20;;;;;21.30;98973.00;;;;4994077;28;20581;-64
2023/07/09 04:40:25;;;;;;;6.75;6.05;;;;;21.30;98974.00;;;;5009679;28;20080;-63
2023/07/09 04:42:52;;;;;;;11.40;6.43;;;;;21.30;98985.00;;;;5010441;28;20053;-65
2023/07/09 04:45:18;;;;;;;9.77;6.03;;;;;21.30;98969.00;;;;4995134;28;20046;-64
2023/07/09 04:47:45;;;;;;;8.20;6.00;;;;;21.40;98976.00;;;;5010171;28;20072;-63
2023/07/09 04:50:12;;;;;;;9.90;6.50;;;;;21.50;98977.00;;;;5009491;28;20078;-63
2023/07/09 04:52:38;;;;;;;8.20;5.88;;;;;21.70;98977.00;;;;5010156;28;20065;-65
2023/07/09 04:55:05;;;;;;;10.07;6.35;;;;;21.80;98978.00;;;;5009930;28;20061;-64
2023/07/09 04:57:32;;;;;;;8.70;6.07;;;;;21.80;98975.00;;;;4993817;28;20070;-66
2023/07/09 04:59:59;;;;;;;10.30;6.82;;;;;21.90;98967.00;;;;4994379;28;20050;-64
2023/07/09 05:02:26;;;;;;;8.30;6.05;;;;;22.00;98978.00;;;;4994759;28;20097;-64
2023/07/09 05:04:53;;;;;;;7.30;6.05;;;;;22.00;98975.00;;;;4993541;28;20058;-64
2023/07/09 05:07:20;;;;;;;13.57;6.93;;;;;22.20;98979.00;;;;4994942;28;20053;-64
2023/07/09 05:09:47;;;;;;;12.30;6.15;;;;;22.20;98977.00;;;;4993097;28;20137;-63
2023/07/09 05:12:14;;;;;;;10.77;8.18;;;;;22.40;98971.00;;;;4993409;28;20057;-64
2023/07/09 05:14:40;;;;;;;8.45;6.10;;;;;22.40;98984.00;;;;4993393;28;20082;-64
2023/07/09 05:17:07;;;;;;;9.80;6.00;;;;;22.40;98976.00;;;;4994776;28;20053;-65
2023/07/09 05:19:35;;;;;;;9.13;6.10;;;;;22.40;98969.00;;;;4994017;28;20129;-63
2023/07/09 05:22:02;;;;;;;7.40;6.15;;;;;22.30;98971.00;;;;5009604;28;20142;-64
2023/07/09 05:24:28;;;;;;;9.93;6.90;;;;;22.20;98969.00;;;;4993229;28;20047;-64
2023/07/09 05:26:55;;;;;;;8.85;6.20;;;;;22.30;98969.00;;;;4993219;28;20753;-64
2023/07/09 05:29:23;;;;;;;8.30;6.47;;;;;22.60;98965.00;;;;5009608;28;20054;-64
2023/07/09 05:31:49;;;;;;;9.93;6.78;;;;;22.80;98968.00;;;;4993158;28;20054;-65
2023/07/09 05:34:16;;;;;;;10.82;7.07;;;;;22.80;98973.00;;;;4992991;28;20100;-65
2023/07/09 05:36:42;;;;;;;10.05;7.60;;;;;22.70;98976.00;;;;4993285;28;20129;-64
2023/07/09 05:39:09;;;;;;;8.45;7.28;;;;;22.80;98975.00;;;;4993580;28;20038;-64
2023/07/09 05:41:36;;;;;;;8.05;6.20;;;;;22.90;98975.00;;;;4994322;28;20066;-65
2023/07/09 05:44:03;;;;;;;9.77;6.22;;;;;23.00;98978.00;;;;4992792;28;20042;-64
2023/07/09 05:46:35;;;;;;;7.80;6.20;;;;;23.20;98987.00;;;;4993755;28;20046;-64
2023/07/09 05:49:04;;;;;;;8.80;6.53;;;;;23.30;98986.00;;;;4993406;28;20050;-65
2023/07/09 05:51:30;;;;;;;7.50;6.18;;;;;23.50;98986.00;;;;4994091;28;20042;-65
2023/07/09 05:53:57;;;;;;;8.27;7.00;;;;;23.60;98985.00;;;;4992812;28;20133;-65
2023/07/09 05:56:24;;;;;;;10.50;7.35;;;;;23.60;98989.00;;;;4992612;28;20054;-66
2023/07/09 05:58:52;;;;;;;9.68;6.97;;;;;23.80;98988.00;;;;4993920;28;20133;-65
2023/07/09 06:01:20;;;;;;;7.18;5.60;;;;;24.00;98991.00;;;;4994951;28;20150;-65
2023/07/09 06:03:47;;;;;;;11.07;6.47;;;;;24.00;98990.00;;;;4993888;28;20046;-65
2023/07/09 06:06:13;;;;;;;11.05;6.80;;;;;23.90;98996.00;;;;4992720;28;20129;-65
2023/07/09 06:08:40;;;;;;;9.48;5.82;;;;;24.00;98989.00;;;;4992658;28;20056;-65
2023/07/09 06:11:07;;;;;;;7.93;6.25;;;;;24.00;98987.00;;;;4993076;28;20053;-65
2023/07/09 06:13:33;;;;;;;9.75;6.20;;;;;24.20;98991.00;;;;4993686;28;20495;-65
2023/07/09 06:16:01;;;;;;;8.52;6.68;;;;;24.10;98986.00;;;;4993543;28;20073;-65
2023/07/09 06:18:29;;;;;;;6.80;6.20;;;;;24.00;98990.00;;;;4993530;28;20042;-65
2023/07/09 06:20:58;;;;;;;7.35;6.53;;;;;24.10;98985.00;;;;4992792;28;20487;-65
2023/07/09 06:23:25;;;;;;;8.52;6.15;;;;;24.30;98987.00;;;;4991911;28;20047;-69
2023/07/09 06:25:52;;;;;;;9.60;5.97;;;;;24.30;98980.00;;;;4992973;28;20046;-64
2023/07/09 06:28:25;;;;;;;10.50;7.60;;;;;24.40;98984.00;;;;4991847;28;20113;-66
2023/07/09 06:30:52;;;;;;;8.90;6.35;;;;;24.50;98987.00;;;;4992557;28;20047;-64
2023/07/09 06:33:19;;;;;;;10.38;7.63;;;;;24.70;98981.00;;;;4993204;28;20113;-64
2023/07/09 06:35:48;;;;;;;9.85;6.50;;;;;24.90;98989.00;;;;4992961;28;20125;-64
2023/07/09 06:38:15;;;;;;;7.22;5.90;;;;;25.00;98989.00;;;;4993044;28;20057;-64
2023/07/09 06:40:42;;;;;;;8.18;5.43;;;;;25.10;98990.00;;;;4992530;28;20064;-65
2023/07/09 06:43:08;;;;;;;9.48;6.13;;;;;25.20;98984.00;;;;4991564;28;20050;-64
2023/07/09 06:45:38;;;;;;;7.75;6.43;;;;;25.30;98986.00;;;;4992310;28;20060;-64
2023/07/09 06:48:05;;;;;;;8.40;6.50;;;;;25.30;98975.00;;;;4993696;28;20054;-63
2023/07/09 06:50:36;;;;;;;8.35;6.15;;;;;25.30;98981.00;;;;4993442;28;20051;-65
2023/07/09 06:53:03;;;;;;;7.63;5.70;;;;;25.40;98976.00;;;;4993793;28;20065;-63
2023/07/09 06:55:30;;;;;;;7.68;5.70;;;;;25.50;98975.00;;;;4994034;28;20586;-65
2023/07/09 06:57:57;;;;;;;7.80;6.32;;;;;25.60;98978.00;;;;4993532;28;20121;-64
2023/07/09 07:00:23;;;;;;;9.00;7.07;;;;;25.70;98983.00;;;;4992238;28;20487;-64
2023/07/09 07:02:50;;;;;;;7.20;5.72;;;;;25.80;98973.00;;;;4992456;28;20427;-63
2023/07/09 07:05:18;;;;;;;9.95;6.55;;;;;25.90;98971.00;;;;4992256;28;20042;-63
2023/07/09 07:07:45;;;;;;;9.60;5.38;;;;;26.00;98978.00;;;;4990980;28;20514;-63
2023/07/09 07:10:11;;;;;;;7.35;5.82;;;;;26.10;98970.00;;;;4990561;28;20046;-63
2023/07/09 07:12:44;;;;;;;9.77;5.95;;;;;26.20;98968.00;;;;4992281;28;20045;-63
2023/07/09 07:15:13;;;;;;;7.03;5.15;;;;;26.40;98965.00;;;;4992455;28;20042;-64
2023/07/09 07:17:39;;;;;;;6.53;5.18;;;;;26.50;98967.00;;;;4991101;28;20069;-65
2023/07/09 07:20:07;;;;;;;7.32;5.35;;;;;26.60;98974.00;;;;4991895;28;20081;-63
2023/07/09 07:22:34;;;;;;;7.65;5.03;;;;;26.80;98967.00;;;;4992255;28;20084;-67
2023/07/09 07:25:01;;;;;;;7.88;4.88;;;;;27.00;98969.00;;;;4992050;28;20074;-66
2023/07/09 07:27:27;;;;;;;9.13;4.97;;;;;27.10;98966.00;;;;4992410;28;20050;-66
2023/07/09 07:29:54;;;;;;;6.50;4.90;;;;;27.20;98968.00;;;;5006743;28;20530;-66
2023/07/09 07:32:20;;;;;;;8.50;4.50;;;;;27.40;98968.00;;;;4992083;28;20077;-66
2023/07/09 07:34:48;;;;;;;7.18;4.65;;;;;27.60;98961.00;;;;4991885;28;20042;-66
2023/07/09 07:37:22;;;;;;;8.43;4.80;;;;;27.80;98961.00;;;;5007130;28;20054;-66
2023/07/09 07:39:48;;;;;;;6.60;4.72;;;;;27.90;98965.00;;;;4991504;28;20495;-65
2023/07/09 07:42:15;;;;;;;7.30;4.25;;;;;28.00;98965.00;;;;4992004;28;20476;-65
2023/07/09 07:44:42;;;;;;;7.80;4.95;;;;;28.20;98968.00;;;;5006818;28;20042;-66
2023/07/09 07:47:08;;;;;;;8.73;4.22;;;;;28.40;98969.00;;;;5007019;28;20065;-66
2023/07/09 07:49:35;;;;;;;5.72;4.40;;;;;28.50;98969.00;;;;4991618;28;20190;-67
2023/07/09 07:52:03;;;;;;;5.55;4.53;;;;;28.60;98969.00;;;;5007676;28;20101;-69
2023/07/09 07:54:31;;;;;;;5.35;4.28;;;;;28.70;98977.00;;;;4992100;28;20055;-70
2023/07/09 07:56:58;;;;;;;5.65;4.07;;;;;28.80;98975.00;;;;4992498;28;20089;-71
2023/07/09 07:59:25;;;;;;;5.28;4.22;;;;;28.90;98974.00;;;;4992108;28;20050;-70
2023/07/09 08:01:51;;;;;;;6.50;4.82;;;;;29.10;98966.00;;;;5003045;28;20061;-70
2023/07/09 08:04:18;;;;;;;22.23;18.15;;;;;29.30;98966.00;;;;5011487;28;20057;-71
2023/07/09 08:06:46;;;;;;;8.18;6.78;;;;;29.40;98965.00;;;;5003558;28;20491;-67
2023/07/09 08:09:12;;;;;;;5.43;4.47;;;;;29.50;98970.00;;;;4992345;28;20066;-69
2023/07/09 08:11:39;;;;;;;6.63;4.38;;;;;29.70;98965.00;;;;4995807;28;20124;-69
2023/07/09 08:14:06;;;;;;;8.18;4.00;;;;;29.90;98963.00;;;;4995600;28;20066;-68
2023/07/09 08:16:33;;;;;;;5.35;3.92;;;;;30.10;98967.00;;;;5010894;28;20415;-68
2023/07/09 08:19:03;;;;;;;7.35;4.72;;;;;30.20;98967.00;;;;4994946;28;20437;-68
2023/07/09 08:21:30;;;;;;;6.40;4.28;;;;;30.30;98975.00;;;;4998361;28;20053;-69
2023/07/09 08:23:56;;;;;;;6.03;4.03;;;;;30.40;98969.00;;;;5011834;28;20117;-70
2023/07/09 08:26:24;;;;;;;7.40;4.35;;;;;30.50;98966.00;;;;4996219;28;20125;-70
2023/07/09 08:28:51;;;;;;;9.75;3.80;;;;;30.60;98965.00;;;;4995964;28;20100;-69
2023/07/09 08:31:18;;;;;;;6.35;4.05;;;;;30.70;98961.00;;;;5010083;28;20057;-70
2023/07/09 08:33:44;;;;;;;6.07;3.95;;;;;30.90;98956.00;;;;5010432;28;20122;-70
2023/07/09 08:36:11;;;;;;;5.35;4.07;;;;;31.00;98951.00;;;;4995366;28;20046;-70
2023/07/09 08:38:38;;;;;;;4.55;3.75;;;;;31.20;98949.00;;;;5010333;28;20418;-70
2023/07/09 08:41:04;;;;;;;5.60;4.40;;;;;31.30;98958.00;;;;5010586;28;20057;-70
2023/07/09 08:44:09;;;;;;;7.00;4.78;;;;;31.40;98959.00;;;;4995284;28;20093;-70
2023/07/09 08:46:59;;;;;;;5.90;4.35;;;;;31.60;98958.00;;;;4995283;28;20529;-70
2023/07/09 08:49:40;;;;;;;6.07;4.65;;;;;31.70;98949.00;;;;4993864;28;20054;-70
2023/07/09 08:52:17;;;;;;;6.00;4.60;;;;;31.70;98950.00;;;;4994143;28;20042;-70
2023/07/09 08:54:47;;;;;;;7.75;4.55;;;;;31.80;98943.00;;;;5010138;28;20505;-69
2023/07/09 08:57:19;;;;;;;8.60;5.50;;;;;32.00;98941.00;;;;4995226;28;20070;-69
2023/07/09 08:59:47;;;;;;;6.95;4.93;;;;;32.10;98941.00;;;;4994482;28;20054;-69
2023/07/09 09:02:31;;;;;;;6.13;4.05;;;;;32.40;98937.00;;;;4993858;28;20050;-67
2023/07/09 09:04:58;;;;;;;6.93;4.65;;;;;32.50;98942.00;;;;4994885;28;20053;-68
2023/07/09 09:07:39;;;;;;;5.07;4.03;;;;;32.50;98937.00;;;;4995249;28;20046;-69
2023/07/09 09:10:10;;;;;;;7.88;3.88;;;;;32.60;98938.00;;;;4993339;28;20403;-68
2023/07/09 09:12:42;;;;;;;5.47;3.95;;;;;32.80;98940.00;;;;4995173;28;20046;-67
2023/07/09 09:15:18;;;;;;;5.10;4.28;;;;;32.80;98934.00;;;;5009798;28;20129;-67
2023/07/09 09:17:45;;;;;;;5.65;3.75;;;;;32.80;98939.00;;;;4993840;28;20046;-67
2023/07/09 09:20:22;;;;;;;4.35;3.55;;;;;33.00;98934.00;;;;4994334;28;20046;-68
2023/07/09 09:22:56;;;;;;;5.25;3.90;;;;;33.20;98942.00;;;;5008997;28;20141;-67
2023/07/09 09:25:27;;;;;;;5.35;3.92;;;;;33.30;98930.00;;;;4994645;28;20132;-69
2023/07/09 09:27:54;;;;;;;7.60;4.30;;;;;33.50;98934.00;;;;5009556;28;20089;-69
2023/07/09 09:30:23;;;;;;;6.70;4.00;;;;;33.50;98930.00;;;;4993824;28;20104;-68
2023/07/09 09:33:00;;;;;;;5.95;4.85;;;;;33.50;98926.00;;;;4994447;28;20042;-69
2023/07/09 09:35:36;;;;;;;7.47;4.13;;;;;33.60;98933.00;;;;4994195;28;20130;-69
2023/07/09 09:38:16;;;;;;;6.63;4.13;;;;;33.80;98931.00;;;;5009336;28;20043;-69
2023/07/09 09:40:43;;;;;;;5.93;4.10;;;;;33.80;98923.00;;;;5008775;28;20069;-69
2023/07/09 09:43:16;;;;;;;6.05;4.07;;;;;33.70;98917.00;;;;4994119;28;20051;-69
2023/07/09 09:45:44;;;;;;;5.30;3.95;;;;;33.80;98913.00;;;;4993965;28;20046;-69
2023/07/09 09:48:27;;;;;;;6.72;4.22;;;;;33.90;98917.00;;;;4994024;28;20134;-69
2023/07/09 09:51:00;;;;;;;7.93;4.35;;;;;34.00;98920.00;;;;5008600;28;20054;-69
2023/07/09 09:53:29;;;;;;;6.65;4.00;;;;;34.00;98923.00;;;;4993957;28;20055;-69
2023/07/09 09:55:58;;;;;;;6.00;3.88;;;;;34.10;98921.00;;;;4991887;28;20050;-69
2023/07/09 09:58:30;;;;;;;8.70;4.63;;;;;34.30;98910.00;;;;4993601;28;20169;-68
2023/07/09 10:01:00;;;;;;;13.23;11.88;;;;;34.20;98918.00;;;;4993422;28;20047;-68
2023/07/09 10:03:35;;;;;;;5.15;3.35;;;;;34.30;98908.00;;;;4993520;28;20112;-70
2023/07/09 10:06:20;;;;;;;4.65;3.90;;;;;34.30;98915.00;;;;4992693;28;20042;-69
2023/07/09 10:09:01;;;;;;;6.15;3.67;;;;;34.30;98913.00;;;;4992747;28;20493;-68
2023/07/09 10:11:37;;;;;;;6.82;4.30;;;;;34.40;98916.00;;;;4993803;28;20042;-69
2023/07/09 10:14:33;;;;;;;6.93;4.00;;;;;34.60;98919.00;;;;5008594;28;20498;-69
2023/07/09 10:17:09;;;;;;;5.57;3.60;;;;;34.70;98916.00;;;;4992457;28;20138;-69
2023/07/09 10:19:49;;;;;;;4.93;3.25;;;;;34.90;98917.00;;;;4993012;28;20050;-69
2023/07/09 10:22:37;;;;;;;5.18;3.30;;;;;35.00;98915.00;;;;4993720;28;20129;-69
2023/07/09 10:25:12;;;;;;;5.43;3.78;;;;;35.10;98909.00;;;;4991938;28;20046;-69
2023/07/09 10:28:04;;;;;;;5.25;3.83;;;;;35.20;98911.00;;;;4993603;28;20117;-70
2023/07/09 10:30:44;;;;;;;6.18;2.88;;;;;35.20;98908.00;;;;4993019;28;20133;-69
2023/07/09 10:33:32;;;;;;;5.57;3.63;;;;;35.20;98906.00;;;;5008401;28;20054;-69
2023/07/09 10:36:21;;;;;;;6.32;4.35;;;;;35.30;98906.00;;;;4993028;28;20054;-69
2023/07/09 10:39:01;;;;;;;6.63;5.90;;;;;35.50;98902.00;;;;4993252;28;20050;-69
2023/07/09 10:41:29;;;;;;;5.88;2.80;;;;;35.60;98900.00;;;;4993358;28;20042;-70
2023/07/09 10:44:18;;;;;;;5.70;3.15;;;;;35.60;98898.00;;;;5007922;28;20050;-70
2023/07/09 10:46:54;;;;;;;6.03;4.22;;;;;35.70;98896.00;;;;4991973;28;20064;-70
2023/07/09 10:49:24;;;;;;;4.28;3.63;;;;;35.60;98893.00;;;;5007733;28;20050;-71
2023/07/09 10:51:55;;;;;;;5.65;3.85;;;;;35.70;98904.00;;;;4993087;28;20038;-70
2023/07/09 10:54:32;;;;;;;4.18;3.65;;;;;36.00;98906.00;;;;4992955;28;20049;-71
2023/07/09 10:57:10;;;;;;;6.13;3.45;;;;;36.00;98901.00;;;;5008083;28;20050;-70
2023/07/09 10:59:40;;;;;;;6.00;3.03;;;;;36.10;98911.00;;;;5007552;28;20050;-70
2023/07/09 11:02:21;;;;;;;5.05;3.42;;;;;36.10;98913.00;;;;4991485;28;20104;-70
2023/07/09 11:04:53;;;;;;;4.22;3.13;;;;;36.10;98918.00;;;;5007745;28;20038;-70
2023/07/09 11:07:29;;;;;;;7.80;3.80;;;;;36.10;98917.00;;;;4991846;28;20085;-70
2023/07/09 11:09:58;;;;;;;6.47;4.60;;;;;36.20;98907.00;;;;5007446;28;20557;-70
2023/07/09 11:12:39;;;;;;;5.78;3.28;;;;;36.30;98901.00;;;;4992863;28;20050;-70
2023/07/09 11:15:13;;;;;;;6.18;3.28;;;;;36.30;98904.00;;;;4993560;28;20261;-70
2023/07/09 11:17:44;;;;;;;7.55;4.00;;;;;36.40;98901.00;;;;4993203;28;20050;-70
2023/07/09 11:20:24;;;;;;;9.10;3.42;;;;;36.50;98903.00;;;;4992159;28;20097;-70
2023/07/09 11:23:01;;;;;;;4.53;3.60;;;;;36.60;98897.00;;;;4992739;28;20046;-70
2023/07/09 11:25:39;;;;;;;5.30;3.67;;;;;36.60;98902.00;;;;4992595;28;20121;-70
2023/07/09 11:28:06;;;;;;;4.15;3.30;;;;;36.60;98897.00;;;;5007648;28;20418;-70
2023/07/09 11:30:48;;;;;;;7.65;4.57;;;;;36.70;98897.00;;;;5007042;28;20050;-70
2023/07/09 11:33:18;;;;;;;5.30;3.20;;;;;36.80;98892.00;;;;5007612;28;20047;-70
2023/07/09 11:36:12;;;;;;;5.35;3.38;;;;;36.90;98894.00;;;;4992497;28;20468;-70
2023/07/09 11:38:46;;;;;;;5.00;3.13;;;;;37.00;98885.00;;;;4992552;28;20125;-69
2023/07/09 11:41:32;;;;;;;5.93;2.90;;;;;37.00;98887.00;;;;4991975;28;20050;-70
2023/07/09 11:44:13;;;;;;;4.72;3.30;;;;;37.10;98875.00;;;;5007602;28;20052;-69
2023/07/09 11:46:55;;;;;;;7.30;3.53;;;;;37.30;98871.00;;;;5011282;28;20050;-69
2023/07/09 11:49:26;;;;;;;5.03;3.08;;;;;37.30;98875.00;;;;5011060;28;20058;-69
2023/07/09 11:51:58;;;;;;;4.30;3.07;;;;;37.20;98874.00;;;;4996655;28;20057;-68
2023/07/09 11:54:25;;;;;;;7.30;4.68;;;;;37.40;98872.00;;;;4996845;28;20053;-69
2023/07/09 11:56:57;;;;;;;5.88;3.40;;;;;37.60;98872.00;;;;4996828;28;20125;-69
2023/07/09 11:59:24;;;;;;;4.57;2.88;;;;;37.50;98871.00;;;;5011467;28;20136;-68
2023/07/09 12:01:54;;;;;;;4.35;3.03;;;;;37.40;98865.00;;;;5012137;28;20047;-69
2023/07/09 12:04:27;;;;;;;4.50;3.15;;;;;37.50;98867.00;;;;4997183;28;20039;-64
2023/07/09 12:06:58;;;;;;;4.00;3.30;;;;;37.50;98867.00;;;;5011652;28;20407;-68
2023/07/09 12:09:31;;;;;;;5.13;3.17;;;;;37.40;98868.00;;;;4994889;28;20140;-69
2023/07/09 12:11:58;;;;;;;3.70;3.20;;;;;37.40;98863.00;;;;4995101;28;20145;-68
2023/07/09 12:14:26;;;;;;;7.38;3.90;;;;;37.60;98862.00;;;;4995905;28;20038;-68
2023/07/09 12:16:53;;;;;;;7.45;3.50;;;;;37.90;98871.00;;;;5011332;28;20045;-69
2023/07/09 12:19:23;;;;;;;4.07;2.97;;;;;38.00;98855.00;;;;4994383;28;20081;-68
2023/07/09 12:21:57;;;;;;;5.15;3.05;;;;;38.10;98852.00;;;;4994953;28;20550;-69
2023/07/09 12:24:26;;;;;;;5.38;2.92;;;;;38.30;98850.00;;;;4995777;28;20047;-69
2023/07/09 12:27:00;;;;;;;4.75;2.80;;;;;38.50;98840.00;;;;4978037;28;20141;-65
2023/07/09 12:29:29;;;;;;;5.03;3.35;;;;;38.70;98836.00;;;;5010254;28;20057;-64